sensor_id;sensor_type;location;lat;lon;timestamp;temperature;humidity
3356;DHT22;1691;52.486;13.374;2022-10-04T00:00:48;14.10;98.70
3356;DHT22;1691;52.486;13.374;2022-10-04T00:03:28;14.10;98.70
3356;DHT22;1691;52.486;13.374;2022-10-04T00:06:00;14.10;98.70
3356;DHT22;1691;52.486;13.374;2022-10-04T00:08:39;14.10;98.70
3356;DHT22;1691;52.486;13.374;2022-10-04T00:11:34;14.10;98.70
3356;DHT22;1691;52.486;13.374;2022-10-04T00:14:13;14.10;98.70
3356;DHT22;1691;52.486;13.374;2022-10-04T00:16:43;14.10;98.70
3356;DHT22;1691;52.486;13.374;2022-10-04T00:29:43;14.10;98.70
3356;DHT22;1691;52.486;13.374;2022-10-04T00:40:54;14.00;98.70
3356;DHT22;1691;52.486;13.374;2022-10-04T00:43:39;14.00;98.70
3356;DHT22;1691;52.486;13.374;2022-10-04T00:46:12;14.00;98.70
3356;DHT22;1691;52.486;13.374;2022-10-04T00:48:48;14.00;98.70
3356;DHT22;1691;52.486;13.374;2022-10-04T00:51:18;14.00;98.70
3356;DHT22;1691;52.486;13.374;2022-10-04T00:56:48;13.90;98.70
3356;DHT22;1691;52.486;13.374;2022-10-04T01:07:41;13.90;98.60
3356;DHT22;1691;52.486;13.374;2022-10-04T01:10:30;13.90;98.60
3356;DHT22;1691;52.486;13.374;2022-10-04T01:13:13;13.90;98.50
3356;DHT22;1691;52.486;13.374;2022-10-04T01:29:05;13.90;98.40
3356;DHT22;1691;52.486;13.374;2022-10-04T01:31:45;13.80;98.40
3356;DHT22;1691;52.486;13.374;2022-10-04T01:34:16;13.80;98.40
3356;DHT22;1691;52.486;13.374;2022-10-04T01:36:45;13.70;98.40
3356;DHT22;1691;52.486;13.374;2022-10-04T01:39:15;13.70;98.50
3356;DHT22;1691;52.486;13.374;2022-10-04T01:42:06;13.70;98.50
3356;DHT22;1691;52.486;13.374;2022-10-04T01:45:02;13.60;98.60
3356;DHT22;1691;52.486;13.374;2022-10-04T01:50:17;13.50;98.70
3356;DHT22;1691;52.486;13.374;2022-10-04T01:52:50;13.50;98.70
3356;DHT22;1691;52.486;13.374;2022-10-04T01:55:28;13.50;98.70
3356;DHT22;1691;52.486;13.374;2022-10-04T01:58:13;13.40;98.70
3356;DHT22;1691;52.486;13.374;2022-10-04T02:00:57;13.40;98.70
3356;DHT22;1691;52.486;13.374;2022-10-04T02:03:34;13.40;98.70
3356;DHT22;1691;52.486;13.374;2022-10-04T02:06:05;13.30;98.70
3356;DHT22;1691;52.486;13.374;2022-10-04T02:08:37;13.30;98.70
3356;DHT22;1691;52.486;13.374;2022-10-04T02:11:17;13.20;98.70
3356;DHT22;1691;52.486;13.374;2022-10-04T02:13:48;13.10;98.70
3356;DHT22;1691;52.486;13.374;2022-10-04T02:16:18;13.10;98.70
3356;DHT22;1691;52.486;13.374;2022-10-04T02:18:46;13.00;98.70
3356;DHT22;1691;52.486;13.374;2022-10-04T02:21:13;12.90;98.70
3356;DHT22;1691;52.486;13.374;2022-10-04T02:23:42;12.90;98.70
3356;DHT22;1691;52.486;13.374;2022-10-04T02:26:10;12.90;98.70
3356;DHT22;1691;52.486;13.374;2022-10-04T02:28:38;12.90;98.70
3356;DHT22;1691;52.486;13.374;2022-10-04T02:31:05;12.90;98.70
3356;DHT22;1691;52.486;13.374;2022-10-04T02:33:55;13.00;98.70
3356;DHT22;1691;52.486;13.374;2022-10-04T02:36:26;13.00;98.70
3356;DHT22;1691;52.486;13.374;2022-10-04T02:39:02;13.10;98.70
3356;DHT22;1691;52.486;13.374;2022-10-04T02:41:36;13.20;98.70
3356;DHT22;1691;52.486;13.374;2022-10-04T02:52:09;13.10;98.60
3356;DHT22;1691;52.486;13.374;2022-10-04T02:54:51;13.10;98.60
3356;DHT22;1691;52.486;13.374;2022-10-04T02:57:23;13.00;98.70
3356;DHT22;1691;52.486;13.374;2022-10-04T03:00:01;12.90;98.70
3356;DHT22;1691;52.486;13.374;2022-10-04T03:03:10;12.90;98.70
3356;DHT22;1691;52.486;13.374;2022-10-04T03:05:52;12.80;98.70
3356;DHT22;1691;52.486;13.374;2022-10-04T03:08:43;12.70;98.70
3356;DHT22;1691;52.486;13.374;2022-10-04T03:11:21;12.50;98.70
3356;DHT22;1691;52.486;13.374;2022-10-04T03:13:52;12.50;98.70
3356;DHT22;1691;52.486;13.374;2022-10-04T03:16:21;12.40;98.70
3356;DHT22;1691;52.486;13.374;2022-10-04T03:18:51;12.30;98.70
3356;DHT22;1691;52.486;13.374;2022-10-04T03:21:20;12.30;98.70
3356;DHT22;1691;52.486;13.374;2022-10-04T03:23:50;12.20;98.70
3356;DHT22;1691;52.486;13.374;2022-10-04T03:26:31;12.20;98.70
3356;DHT22;1691;52.486;13.374;2022-10-04T03:28:59;12.10;98.70
3356;DHT22;1691;52.486;13.374;2022-10-04T03:31:27;12.10;98.70
3356;DHT22;1691;52.486;13.374;2022-10-04T03:33:56;12.00;98.70
3356;DHT22;1691;52.486;13.374;2022-10-04T03:36:24;12.00;98.70
3356;DHT22;1691;52.486;13.374;2022-10-04T03:38:54;11.90;98.70
3356;DHT22;1691;52.486;13.374;2022-10-04T03:41:22;11.90;98.70
3356;DHT22;1691;52.486;13.374;2022-10-04T03:43:53;11.90;98.70
3356;DHT22;1691;52.486;13.374;2022-10-04T03:46:21;11.90;98.70
3356;DHT22;1691;52.486;13.374;2022-10-04T03:48:51;11.80;98.70
3356;DHT22;1691;52.486;13.374;2022-10-04T03:51:21;11.80;98.70
3356;DHT22;1691;52.486;13.374;2022-10-04T03:53:52;11.80;98.70
3356;DHT22;1691;52.486;13.374;2022-10-04T03:56:25;11.70;98.70
3356;DHT22;1691;52.486;13.374;2022-10-04T03:58:53;11.70;98.70
3356;DHT22;1691;52.486;13.374;2022-10-04T04:01:45;11.70;98.70
3356;DHT22;1691;52.486;13.374;2022-10-04T04:07:06;11.80;98.70
3356;DHT22;1691;52.486;13.374;2022-10-04T04:09:39;11.80;98.70
3356;DHT22;1691;52.486;13.374;2022-10-04T04:15:31;12.10;98.70
3356;DHT22;1691;52.486;13.374;2022-10-04T04:18:09;12.20;98.70
3356;DHT22;1691;52.486;13.374;2022-10-04T04:20:41;12.30;98.70
3356;DHT22;1691;52.486;13.374;2022-10-04T04:28:50;12.60;98.70
3356;DHT22;1691;52.486;13.374;2022-10-04T04:31:25;12.60;98.70
3356;DHT22;1691;52.486;13.374;2022-10-04T04:33:56;12.70;98.70
3356;DHT22;1691;52.486;13.374;2022-10-04T04:36:30;12.70;98.70
3356;DHT22;1691;52.486;13.374;2022-10-04T04:39:13;12.60;98.70
3356;DHT22;1691;52.486;13.374;2022-10-04T04:42:15;12.50;98.70
3356;DHT22;1691;52.486;13.374;2022-10-04T04:47:37;12.30;98.70
3356;DHT22;1691;52.486;13.374;2022-10-04T04:50:18;12.20;98.70
3356;DHT22;1691;52.486;13.374;2022-10-04T04:53:11;12.20;98.70
3356;DHT22;1691;52.486;13.374;2022-10-04T04:55:44;12.10;98.70
3356;DHT22;1691;52.486;13.374;2022-10-04T04:58:40;12.10;98.70
3356;DHT22;1691;52.486;13.374;2022-10-04T05:01:22;12.00;98.70
3356;DHT22;1691;52.486;13.374;2022-10-04T05:06:40;12.10;98.70
3356;DHT22;1691;52.486;13.374;2022-10-04T05:09:36;12.20;98.70
3356;DHT22;1691;52.486;13.374;2022-10-04T05:12:17;12.20;98.70
3356;DHT22;1691;52.486;13.374;2022-10-04T05:14:49;12.30;98.70
3356;DHT22;1691;52.486;13.374;2022-10-04T05:17:23;12.30;98.70
3356;DHT22;1691;52.486;13.374;2022-10-04T05:19:56;12.30;98.70
3356;DHT22;1691;52.486;13.374;2022-10-04T05:22:24;12.20;98.70
3356;DHT22;1691;52.486;13.374;2022-10-04T05:25:00;12.20;98.70
3356;DHT22;1691;52.486;13.374;2022-10-04T05:27:37;12.30;98.70
3356;DHT22;1691;52.486;13.374;2022-10-04T05:33:12;12.50;98.70
3356;DHT22;1691;52.486;13.374;2022-10-04T05:38:55;12.80;98.70
3356;DHT22;1691;52.486;13.374;2022-10-04T05:41:56;12.90;98.70
3356;DHT22;1691;52.486;13.374;2022-10-04T05:44:30;13.20;98.70
3356;DHT22;1691;52.486;13.374;2022-10-04T05:47:05;13.60;98.70
3356;DHT22;1691;52.486;13.374;2022-10-04T05:49:39;14.20;98.70
3356;DHT22;1691;52.486;13.374;2022-10-04T05:52:24;14.70;98.70
3356;DHT22;1691;52.486;13.374;2022-10-04T05:55:17;15.10;98.70
3356;DHT22;1691;52.486;13.374;2022-10-04T06:06:49;15.40;96.20
3356;DHT22;1691;52.486;13.374;2022-10-04T06:09:43;15.10;96.10
3356;DHT22;1691;52.486;13.374;2022-10-04T06:15:21;14.80;96.30
3356;DHT22;1691;52.486;13.374;2022-10-04T06:18:41;14.70;96.30
3356;DHT22;1691;52.486;13.374;2022-10-04T06:24:10;14.90;96.40
3356;DHT22;1691;52.486;13.374;2022-10-04T06:26:43;15.20;95.90
3356;DHT22;1691;52.486;13.374;2022-10-04T06:29:17;15.30;95.40
3356;DHT22;1691;52.486;13.374;2022-10-04T06:31:57;15.50;95.00
3356;DHT22;1691;52.486;13.374;2022-10-04T06:37:57;15.60;93.70
3356;DHT22;1691;52.486;13.374;2022-10-04T06:43:53;15.50;93.60
3356;DHT22;1691;52.486;13.374;2022-10-04T06:46:39;15.40;93.50
3356;DHT22;1691;52.486;13.374;2022-10-04T06:49:34;15.20;93.50
3356;DHT22;1691;52.486;13.374;2022-10-04T06:52:29;15.00;93.60
3356;DHT22;1691;52.486;13.374;2022-10-04T06:55:41;15.00;93.80
3356;DHT22;1691;52.486;13.374;2022-10-04T06:58:35;14.90;93.80
3356;DHT22;1691;52.486;13.374;2022-10-04T07:01:27;14.90;93.80
3356;DHT22;1691;52.486;13.374;2022-10-04T07:06:46;14.80;93.80
3356;DHT22;1691;52.486;13.374;2022-10-04T07:09:20;14.80;93.90
3356;DHT22;1691;52.486;13.374;2022-10-04T07:11:53;14.70;94.00
3356;DHT22;1691;52.486;13.374;2022-10-04T07:14:28;14.70;94.10
3356;DHT22;1691;52.486;13.374;2022-10-04T07:17:04;14.70;94.10
3356;DHT22;1691;52.486;13.374;2022-10-04T07:19:47;14.70;94.10
3356;DHT22;1691;52.486;13.374;2022-10-04T07:22:36;14.70;94.20
3356;DHT22;1691;52.486;13.374;2022-10-04T07:25:23;14.80;94.30
3356;DHT22;1691;52.486;13.374;2022-10-04T07:31:03;15.00;94.10
3356;DHT22;1691;52.486;13.374;2022-10-04T07:33:49;15.10;93.90
3356;DHT22;1691;52.486;13.374;2022-10-04T07:36:22;15.10;93.80
3356;DHT22;1691;52.486;13.374;2022-10-04T07:39:00;15.20;93.70
3356;DHT22;1691;52.486;13.374;2022-10-04T07:41:42;15.20;93.70
3356;DHT22;1691;52.486;13.374;2022-10-04T07:49:13;15.10;93.70
3356;DHT22;1691;52.486;13.374;2022-10-04T07:58:10;15.10;93.70
3356;DHT22;1691;52.486;13.374;2022-10-04T08:01:29;15.00;93.70
3356;DHT22;1691;52.486;13.374;2022-10-04T08:04:23;15.10;93.80
3356;DHT22;1691;52.486;13.374;2022-10-04T08:07:25;15.10;93.80
3356;DHT22;1691;52.486;13.374;2022-10-04T08:10:29;15.20;93.80
3356;DHT22;1691;52.486;13.374;2022-10-04T08:19:22;15.50;93.40
3356;DHT22;1691;52.486;13.374;2022-10-04T08:31:18;16.50;92.40
3356;DHT22;1691;52.486;13.374;2022-10-04T08:49:07;18.30;87.70
3356;DHT22;1691;52.486;13.374;2022-10-04T09:00:57;19.90;81.90
3356;DHT22;1691;52.486;13.374;2022-10-04T09:46:30;20.90;68.70
3356;DHT22;1691;52.486;13.374;2022-10-04T09:55:59;20.90;68.80
3356;DHT22;1691;52.486;13.374;2022-10-04T10:04:44;21.10;68.80
3356;DHT22;1691;52.486;13.374;2022-10-04T10:17:09;21.00;70.00
3356;DHT22;1691;52.486;13.374;2022-10-04T10:41:23;21.60;67.20
3356;DHT22;1691;52.486;13.374;2022-10-04T10:47:15;21.50;67.50
3356;DHT22;1691;52.486;13.374;2022-10-04T11:26:48;20.80;69.60
3356;DHT22;1691;52.486;13.374;2022-10-04T11:30:08;20.80;69.40
3356;DHT22;1691;52.486;13.374;2022-10-04T11:44:46;21.10;68.80
3356;DHT22;1691;52.486;13.374;2022-10-04T11:47:38;21.30;68.10
3356;DHT22;1691;52.486;13.374;2022-10-04T11:50:22;21.40;67.70
3356;DHT22;1691;52.486;13.374;2022-10-04T11:56:42;21.20;67.20
3356;DHT22;1691;52.486;13.374;2022-10-04T12:02:38;20.90;67.90
3356;DHT22;1691;52.486;13.374;2022-10-04T12:08:50;20.60;68.10
3356;DHT22;1691;52.486;13.374;2022-10-04T12:11:53;20.50;68.50
3356;DHT22;1691;52.486;13.374;2022-10-04T12:15:11;20.30;68.80
3356;DHT22;1691;52.486;13.374;2022-10-04T12:18:15;20.00;69.40
3356;DHT22;1691;52.486;13.374;2022-10-04T12:30:03;20.20;70.00
3356;DHT22;1691;52.486;13.374;2022-10-04T12:36:28;20.30;69.40
3356;DHT22;1691;52.486;13.374;2022-10-04T12:39:22;20.30;69.00
3356;DHT22;1691;52.486;13.374;2022-10-04T12:42:24;20.50;68.50
3356;DHT22;1691;52.486;13.374;2022-10-04T12:53:24;20.50;67.40
3356;DHT22;1691;52.486;13.374;2022-10-04T12:56:14;20.50;67.40
3356;DHT22;1691;52.486;13.374;2022-10-04T12:59:10;20.50;67.20
3356;DHT22;1691;52.486;13.374;2022-10-04T13:07:15;20.50;66.80
3356;DHT22;1691;52.486;13.374;2022-10-04T13:19:53;20.50;66.60
3356;DHT22;1691;52.486;13.374;2022-10-04T13:32:06;20.60;66.10
3356;DHT22;1691;52.486;13.374;2022-10-04T13:35:02;20.60;65.50
3356;DHT22;1691;52.486;13.374;2022-10-04T13:41:36;20.50;64.90
3356;DHT22;1691;52.486;13.374;2022-10-04T14:02:54;20.50;65.50
3356;DHT22;1691;52.486;13.374;2022-10-04T14:06:04;20.40;65.30
3356;DHT22;1691;52.486;13.374;2022-10-04T14:08:49;20.40;65.90
3356;DHT22;1691;52.486;13.374;2022-10-04T14:17:54;20.20;65.70
3356;DHT22;1691;52.486;13.374;2022-10-04T14:33:23;19.80;66.80
3356;DHT22;1691;52.486;13.374;2022-10-04T14:51:45;19.60;67.40
3356;DHT22;1691;52.486;13.374;2022-10-04T15:03:16;19.20;68.10
3356;DHT22;1691;52.486;13.374;2022-10-04T15:15:21;18.80;69.80
3356;DHT22;1691;52.486;13.374;2022-10-04T15:17:54;18.70;70.10
3356;DHT22;1691;52.486;13.374;2022-10-04T15:21:02;18.60;70.50
3356;DHT22;1691;52.486;13.374;2022-10-04T15:23:53;18.50;70.70
3356;DHT22;1691;52.486;13.374;2022-10-04T15:29:00;18.40;71.50
3356;DHT22;1691;52.486;13.374;2022-10-04T15:32:13;18.30;71.80
3356;DHT22;1691;52.486;13.374;2022-10-04T15:35:19;18.20;72.20
3356;DHT22;1691;52.486;13.374;2022-10-04T15:41:00;18.00;73.10
3356;DHT22;1691;52.486;13.374;2022-10-04T15:46:49;17.90;73.50
3356;DHT22;1691;52.486;13.374;2022-10-04T15:49:56;17.80;73.90
3356;DHT22;1691;52.486;13.374;2022-10-04T16:00:12;17.50;75.00
3356;DHT22;1691;52.486;13.374;2022-10-04T16:03:01;17.40;75.40
3356;DHT22;1691;52.486;13.374;2022-10-04T16:06:07;17.30;75.90
3356;DHT22;1691;52.486;13.374;2022-10-04T16:17:31;17.00;77.20
3356;DHT22;1691;52.486;13.374;2022-10-04T16:23:29;16.90;78.30
3356;DHT22;1691;52.486;13.374;2022-10-04T16:47:56;16.10;83.00
3356;DHT22;1691;52.486;13.374;2022-10-04T17:05:15;15.60;85.80
3356;DHT22;1691;52.486;13.374;2022-10-04T17:08:45;15.50;86.20
3356;DHT22;1691;52.486;13.374;2022-10-04T17:11:30;15.50;87.10
3356;DHT22;1691;52.486;13.374;2022-10-04T17:20:11;15.20;87.90
3356;DHT22;1691;52.486;13.374;2022-10-04T17:36:52;14.90;89.90
3356;DHT22;1691;52.486;13.374;2022-10-04T17:39:36;14.90;90.10
3356;DHT22;1691;52.486;13.374;2022-10-04T17:48:51;14.80;90.10
3356;DHT22;1691;52.486;13.374;2022-10-04T17:54:15;14.70;90.10
3356;DHT22;1691;52.486;13.374;2022-10-04T17:59:39;14.60;90.10
3356;DHT22;1691;52.486;13.374;2022-10-04T18:02:12;14.60;90.20
3356;DHT22;1691;52.486;13.374;2022-10-04T18:05:02;14.50;90.20
3356;DHT22;1691;52.486;13.374;2022-10-04T18:07:44;14.50;90.20
3356;DHT22;1691;52.486;13.374;2022-10-04T18:10:36;14.50;90.30
3356;DHT22;1691;52.486;13.374;2022-10-04T18:13:14;14.40;90.20
3356;DHT22;1691;52.486;13.374;2022-10-04T18:19:26;14.40;90.20
3356;DHT22;1691;52.486;13.374;2022-10-04T18:22:24;14.30;90.20
3356;DHT22;1691;52.486;13.374;2022-10-04T18:25:13;14.30;90.20
3356;DHT22;1691;52.486;13.374;2022-10-04T18:28:09;14.20;90.20
3356;DHT22;1691;52.486;13.374;2022-10-04T18:33:16;14.20;90.20
3356;DHT22;1691;52.486;13.374;2022-10-04T18:35:53;14.20;90.20
3356;DHT22;1691;52.486;13.374;2022-10-04T18:38:30;14.10;90.40
3356;DHT22;1691;52.486;13.374;2022-10-04T18:41:03;14.10;90.40
3356;DHT22;1691;52.486;13.374;2022-10-04T18:43:50;14.10;90.50
3356;DHT22;1691;52.486;13.374;2022-10-04T18:46:21;14.10;90.50
3356;DHT22;1691;52.486;13.374;2022-10-04T18:51:48;14.00;90.60
3356;DHT22;1691;52.486;13.374;2022-10-04T18:57:32;13.90;90.70
3356;DHT22;1691;52.486;13.374;2022-10-04T19:00:22;13.90;90.80
3356;DHT22;1691;52.486;13.374;2022-10-04T19:03:28;13.90;90.80
3356;DHT22;1691;52.486;13.374;2022-10-04T19:06:29;13.80;90.90
3356;DHT22;1691;52.486;13.374;2022-10-04T19:11:39;13.70;91.20
3356;DHT22;1691;52.486;13.374;2022-10-04T19:14:40;13.70;91.30
3356;DHT22;1691;52.486;13.374;2022-10-04T19:20:27;13.60;91.50
3356;DHT22;1691;52.486;13.374;2022-10-04T19:23:37;13.60;91.60
3356;DHT22;1691;52.486;13.374;2022-10-04T19:26:31;13.60;91.60
3356;DHT22;1691;52.486;13.374;2022-10-04T19:31:57;13.50;91.80
3356;DHT22;1691;52.486;13.374;2022-10-04T19:38:02;13.50;91.90
3356;DHT22;1691;52.486;13.374;2022-10-04T19:40:44;13.40;92.00
3356;DHT22;1691;52.486;13.374;2022-10-04T19:43:23;13.40;92.00
3356;DHT22;1691;52.486;13.374;2022-10-04T19:46:17;13.40;92.10
3356;DHT22;1691;52.486;13.374;2022-10-04T19:49:02;13.30;92.20
3356;DHT22;1691;52.486;13.374;2022-10-04T19:51:51;13.30;92.30
3356;DHT22;1691;52.486;13.374;2022-10-04T19:54:33;13.20;92.40
3356;DHT22;1691;52.486;13.374;2022-10-04T19:57:04;13.20;92.60
3356;DHT22;1691;52.486;13.374;2022-10-04T19:59:41;13.20;92.70
3356;DHT22;1691;52.486;13.374;2022-10-04T20:02:12;13.20;92.80
3356;DHT22;1691;52.486;13.374;2022-10-04T20:04:39;13.10;92.80
3356;DHT22;1691;52.486;13.374;2022-10-04T20:07:25;13.10;92.90
3356;DHT22;1691;52.486;13.374;2022-10-04T20:10:27;13.10;93.00
3356;DHT22;1691;52.486;13.374;2022-10-04T20:13:19;13.00;93.20
3356;DHT22;1691;52.486;13.374;2022-10-04T20:15:56;13.00;93.20
3356;DHT22;1691;52.486;13.374;2022-10-04T20:26:10;12.90;93.40
3356;DHT22;1691;52.486;13.374;2022-10-04T20:32:04;12.90;93.50
3356;DHT22;1691;52.486;13.374;2022-10-04T20:34:46;12.90;93.50
3356;DHT22;1691;52.486;13.374;2022-10-04T20:37:15;12.80;93.60
3356;DHT22;1691;52.486;13.374;2022-10-04T20:45:00;12.80;93.80
3356;DHT22;1691;52.486;13.374;2022-10-04T20:50:00;12.80;93.90
3356;DHT22;1691;52.486;13.374;2022-10-04T20:52:30;12.80;94.00
3356;DHT22;1691;52.486;13.374;2022-10-04T20:54:59;12.70;94.00
3356;DHT22;1691;52.486;13.374;2022-10-04T20:57:31;12.70;94.00
3356;DHT22;1691;52.486;13.374;2022-10-04T21:00:17;12.70;94.10
3356;DHT22;1691;52.486;13.374;2022-10-04T21:02:45;12.70;94.20
3356;DHT22;1691;52.486;13.374;2022-10-04T21:05:20;12.70;94.20
3356;DHT22;1691;52.486;13.374;2022-10-04T21:08:19;12.70;94.20
3356;DHT22;1691;52.486;13.374;2022-10-04T21:11:02;12.70;94.20
3356;DHT22;1691;52.486;13.374;2022-10-04T21:13:49;12.60;94.20
3356;DHT22;1691;52.486;13.374;2022-10-04T21:16:40;12.60;94.30
3356;DHT22;1691;52.486;13.374;2022-10-04T21:22:02;12.60;94.30
3356;DHT22;1691;52.486;13.374;2022-10-04T21:27:26;12.60;94.30
3356;DHT22;1691;52.486;13.374;2022-10-04T21:29:58;12.60;94.30
3356;DHT22;1691;52.486;13.374;2022-10-04T21:32:32;12.50;94.30
3356;DHT22;1691;52.486;13.374;2022-10-04T21:35:02;12.50;94.30
3356;DHT22;1691;52.486;13.374;2022-10-04T21:37:31;12.50;94.40
3356;DHT22;1691;52.486;13.374;2022-10-04T21:39:58;12.50;94.40
3356;DHT22;1691;52.486;13.374;2022-10-04T21:42:25;12.40;94.50
3356;DHT22;1691;52.486;13.374;2022-10-04T21:44:53;12.40;94.50
3356;DHT22;1691;52.486;13.374;2022-10-04T21:47:20;12.40;94.60
3356;DHT22;1691;52.486;13.374;2022-10-04T21:49:48;12.40;94.60
3356;DHT22;1691;52.486;13.374;2022-10-04T21:52:16;12.40;94.60
3356;DHT22;1691;52.486;13.374;2022-10-04T21:54:44;12.30;94.80
3356;DHT22;1691;52.486;13.374;2022-10-04T21:57:12;12.30;94.80
3356;DHT22;1691;52.486;13.374;2022-10-04T21:59:39;12.30;94.80
3356;DHT22;1691;52.486;13.374;2022-10-04T22:02:06;12.20;94.90
3356;DHT22;1691;52.486;13.374;2022-10-04T22:04:33;12.20;94.90
3356;DHT22;1691;52.486;13.374;2022-10-04T22:07:00;12.20;94.90
3356;DHT22;1691;52.486;13.374;2022-10-04T22:09:27;12.20;95.00
3356;DHT22;1691;52.486;13.374;2022-10-04T22:11:54;12.10;95.00
3356;DHT22;1691;52.486;13.374;2022-10-04T22:14:21;12.10;95.00
3356;DHT22;1691;52.486;13.374;2022-10-04T22:16:48;12.10;95.10
3356;DHT22;1691;52.486;13.374;2022-10-04T22:19:16;12.00;95.20
3356;DHT22;1691;52.486;13.374;2022-10-04T22:21:43;12.00;95.20
3356;DHT22;1691;52.486;13.374;2022-10-04T22:24:19;12.00;95.30
3356;DHT22;1691;52.486;13.374;2022-10-04T22:26:47;12.00;95.30
3356;DHT22;1691;52.486;13.374;2022-10-04T22:29:16;12.00;95.30
3356;DHT22;1691;52.486;13.374;2022-10-04T22:31:48;12.00;95.30
3356;DHT22;1691;52.486;13.374;2022-10-04T22:34:20;12.00;95.30
3356;DHT22;1691;52.486;13.374;2022-10-04T22:36:48;12.00;95.30
3356;DHT22;1691;52.486;13.374;2022-10-04T22:39:19;11.90;95.30
3356;DHT22;1691;52.486;13.374;2022-10-04T22:41:48;11.90;95.40
3356;DHT22;1691;52.486;13.374;2022-10-04T22:44:21;11.90;95.40
3356;DHT22;1691;52.486;13.374;2022-10-04T22:46:51;11.90;95.30
3356;DHT22;1691;52.486;13.374;2022-10-04T22:49:34;11.90;95.30
3356;DHT22;1691;52.486;13.374;2022-10-04T22:52:10;11.90;95.40
3356;DHT22;1691;52.486;13.374;2022-10-04T22:54:43;11.80;95.50
3356;DHT22;1691;52.486;13.374;2022-10-04T22:57:13;11.80;95.50
3356;DHT22;1691;52.486;13.374;2022-10-04T22:59:43;11.80;95.50
3356;DHT22;1691;52.486;13.374;2022-10-04T23:02:17;11.80;95.50
3356;DHT22;1691;52.486;13.374;2022-10-04T23:04:51;11.80;95.50
3356;DHT22;1691;52.486;13.374;2022-10-04T23:07:20;11.70;95.60
3356;DHT22;1691;52.486;13.374;2022-10-04T23:09:47;11.70;95.60
3356;DHT22;1691;52.486;13.374;2022-10-04T23:12:14;11.70;95.60
3356;DHT22;1691;52.486;13.374;2022-10-04T23:14:41;11.70;95.60
3356;DHT22;1691;52.486;13.374;2022-10-04T23:17:31;11.70;95.70
3356;DHT22;1691;52.486;13.374;2022-10-04T23:22:36;11.60;95.70
3356;DHT22;1691;52.486;13.374;2022-10-04T23:25:18;11.60;95.70
3356;DHT22;1691;52.486;13.374;2022-10-04T23:27:46;11.60;95.70
3356;DHT22;1691;52.486;13.374;2022-10-04T23:30:20;11.50;95.80
3356;DHT22;1691;52.486;13.374;2022-10-04T23:32:49;11.50;95.80
3356;DHT22;1691;52.486;13.374;2022-10-04T23:35:21;11.50;95.80
3356;DHT22;1691;52.486;13.374;2022-10-04T23:37:50;11.50;95.90
3356;DHT22;1691;52.486;13.374;2022-10-04T23:40:21;11.50;95.90
3356;DHT22;1691;52.486;13.374;2022-10-04T23:42:52;11.50;96.00
3356;DHT22;1691;52.486;13.374;2022-10-04T23:45:23;11.40;96.00
3356;DHT22;1691;52.486;13.374;2022-10-04T23:47:55;11.40;96.00
3356;DHT22;1691;52.486;13.374;2022-10-04T23:50:34;11.40;96.10
3356;DHT22;1691;52.486;13.374;2022-10-04T23:53:05;11.40;96.20
3356;DHT22;1691;52.486;13.374;2022-10-04T23:55:42;11.40;96.20
3356;DHT22;1691;52.486;13.374;2022-10-04T23:58:13;11.30;96.20
